createdAt,value
2023-05-02T00:00:51.900Z,131650.0
2023-05-02T00:05:51.861Z,131640.0
2023-05-02T00:10:51.860Z,131640.0
2023-05-02T00:15:51.844Z,131650.0
2023-05-02T00:20:51.879Z,131660.0
2023-05-02T00:25:51.848Z,131670.0
2023-05-02T00:30:51.901Z,131680.0
2023-05-02T00:35:51.890Z,131690.0
2023-05-02T00:40:51.900Z,131690.0
2023-05-02T00:45:51.954Z,131690.0
2023-05-02T00:50:51.856Z,131700.0
2023-05-02T00:55:51.847Z,131700.0
2023-05-02T01:00:51.837Z,131720.0
2023-05-02T01:05:51.842Z,131740.0
2023-05-02T01:10:51.848Z,131740.0
2023-05-02T01:15:51.918Z,131760.0
2023-05-02T01:20:51.838Z,131770.0
2023-05-02T01:25:51.840Z,131760.0
2023-05-02T01:30:51.850Z,131770.0
2023-05-02T01:35:51.879Z,131770.0
2023-05-02T01:40:51.850Z,131790.0
2023-05-02T01:45:51.861Z,131790.0
2023-05-02T01:50:51.855Z,131790.0
2023-05-02T01:55:51.885Z,131810.0
2023-05-02T02:00:51.899Z,131830.0
2023-05-02T02:05:51.858Z,131840.0
2023-05-02T02:10:51.860Z,131840.0
2023-05-02T02:15:51.863Z,131860.0
2023-05-02T02:20:51.879Z,131860.0
2023-05-02T02:25:51.873Z,131850.0
2023-05-02T02:30:51.897Z,131850.0
2023-05-02T02:35:51.870Z,131850.0
2023-05-02T02:40:51.879Z,131840.0
2023-05-02T02:45:51.939Z,131850.0
2023-05-02T02:50:51.870Z,131850.0
2023-05-02T02:55:51.876Z,131850.0
2023-05-02T03:00:51.880Z,131860.0
2023-05-02T03:05:51.869Z,131860.0
2023-05-02T03:10:51.889Z,131870.0
2023-05-02T03:15:51.938Z,131900.0
2023-05-02T03:20:51.884Z,131940.0
2023-05-02T03:25:51.888Z,131980.0
2023-05-02T03:30:51.896Z,132030.0
2023-05-02T03:35:51.891Z,132040.0
2023-05-02T03:40:51.897Z,132070.0
2023-05-02T03:45:51.897Z,132080.0
2023-05-02T03:50:51.892Z,132080.0
2023-05-02T03:55:51.903Z,132090.0
2023-05-02T04:00:51.898Z,132080.0
2023-05-02T04:05:51.912Z,132110.0
2023-05-02T04:10:51.902Z,132140.0
2023-05-02T04:15:51.920Z,132140.0
2023-05-02T04:20:51.902Z,132190.0
2023-05-02T04:25:51.912Z,132210.0
2023-05-02T04:30:51.989Z,132230.0
2023-05-02T04:35:51.913Z,132240.0
2023-05-02T04:40:51.904Z,132250.0
2023-05-02T04:45:51.946Z,132250.0
2023-05-02T04:50:51.913Z,132280.0
2023-05-02T04:55:51.923Z,132290.0
2023-05-02T05:00:51.904Z,132320.0
2023-05-02T05:05:51.926Z,132320.0
2023-05-02T05:10:51.925Z,132350.0
2023-05-02T05:15:51.929Z,132350.0
2023-05-02T05:20:52.019Z,132330.0
2023-05-02T05:25:51.935Z,132310.0
2023-05-02T05:30:51.919Z,132310.0
2023-05-02T05:35:51.929Z,132330.0
2023-05-02T05:40:51.931Z,132340.0
2023-05-02T05:45:51.930Z,132350.0
2023-05-02T05:50:51.941Z,132330.0
2023-05-02T05:55:51.927Z,132350.0
2023-05-02T06:00:51.940Z,132350.0
2023-05-02T06:05:51.946Z,132350.0
2023-05-02T06:10:51.961Z,132350.0
2023-05-02T06:15:51.977Z,132350.0
2023-05-02T06:20:51.950Z,132370.0
2023-05-02T06:25:51.950Z,132400.0
2023-05-02T06:30:51.946Z,132410.0
2023-05-02T06:35:51.958Z,132430.0
2023-05-02T06:40:51.999Z,132490.0
2023-05-02T06:45:52.058Z,132520.0
2023-05-02T06:50:51.979Z,132540.0
2023-05-02T06:55:51.952Z,132550.0
2023-05-02T07:00:51.993Z,132550.0
2023-05-02T07:05:51.957Z,132560.0
2023-05-02T07:10:51.962Z,132530.0
2023-05-02T07:15:51.962Z,132500.0
2023-05-02T07:20:51.963Z,132490.0
2023-05-02T07:25:51.962Z,132490.0
2023-05-02T07:30:51.972Z,132460.0
2023-05-02T07:35:51.967Z,132420.0
2023-05-02T07:40:51.974Z,132440.0
2023-05-02T07:45:52.004Z,132440.0
2023-05-02T07:50:51.976Z,132450.0
2023-05-02T07:55:51.983Z,132430.0
2023-05-02T08:00:51.991Z,132400.0
2023-05-02T08:05:51.987Z,132360.0
2023-05-02T08:10:51.991Z,132340.0
2023-05-02T08:15:51.999Z,132360.0
2023-05-02T08:20:51.990Z,132360.0
2023-05-02T08:25:52.065Z,132350.0
2023-05-02T08:30:52.000Z,132330.0
2023-05-02T08:35:52.006Z,132350.0
2023-05-02T08:40:52.001Z,132430.0
2023-05-02T08:45:52.010Z,132440.0
2023-05-02T08:50:52.065Z,132420.0
2023-05-02T08:55:52.068Z,132390.0
2023-05-02T09:00:52.094Z,132400.0
2023-05-02T09:05:52.029Z,132420.0
2023-05-02T09:10:52.015Z,132390.0
2023-05-02T09:15:52.017Z,132350.0
2023-05-02T09:20:52.023Z,132320.0
2023-05-02T09:25:52.018Z,132330.0
2023-05-02T09:30:52.045Z,132380.0
2023-05-02T09:35:52.029Z,132330.0
2023-05-02T09:40:52.032Z,132290.0
2023-05-02T09:45:52.060Z,132270.0
2023-05-02T09:50:52.028Z,132270.0
2023-05-02T09:55:52.040Z,132260.0
2023-05-02T10:00:52.033Z,132260.0
2023-05-02T10:05:52.039Z,132320.0
2023-05-02T10:10:52.034Z,132350.0
2023-05-02T10:15:52.049Z,132320.0
2023-05-02T10:20:52.050Z,132290.0
2023-05-02T10:25:52.051Z,132270.0
2023-05-02T10:30:52.058Z,132180.0
2023-05-02T10:35:52.056Z,132130.0
2023-05-02T10:40:52.040Z,132160.0
2023-05-02T10:45:52.054Z,132140.0
2023-05-02T10:50:52.058Z,132100.0
2023-05-02T10:55:52.063Z,132030.0
2023-05-02T11:00:52.114Z,132050.0
2023-05-02T11:05:52.054Z,132110.0
2023-05-02T11:10:52.075Z,132150.0
2023-05-02T11:15:52.074Z,132070.0
2023-05-02T11:20:52.075Z,132010.0
2023-05-02T11:25:52.061Z,132050.0
2023-05-02T11:30:52.074Z,132050.0
2023-05-02T11:35:52.074Z,132040.0
2023-05-02T11:40:52.077Z,132070.0
2023-05-02T11:45:52.128Z,132090.0
2023-05-02T11:50:52.076Z,132100.0
2023-05-02T11:55:52.093Z,132090.0
2023-05-02T12:00:52.098Z,132050.0
2023-05-02T12:05:52.116Z,131970.0
2023-05-02T12:10:52.084Z,131980.0
2023-05-02T12:15:52.157Z,131910.0
2023-05-02T12:20:52.143Z,131880.0
2023-05-02T12:25:52.107Z,131940.0
2023-05-02T12:30:52.095Z,131910.0
2023-05-02T12:35:52.150Z,131870.0
2023-05-02T12:40:52.190Z,131820.0
2023-05-02T12:45:52.111Z,131820.0
2023-05-02T12:50:52.192Z,131830.0
2023-05-02T12:55:52.107Z,131810.0
2023-05-02T13:00:52.121Z,131780.0
2023-05-02T13:05:52.112Z,131760.0
2023-05-02T13:10:52.119Z,131870.0
2023-05-02T13:15:52.111Z,131930.0
2023-05-02T13:20:53.456Z,131890.0
2023-05-02T13:25:53.414Z,131830.0
2023-05-02T13:30:53.416Z,131830.0
2023-05-02T13:35:53.428Z,131800.0
2023-05-02T13:40:53.416Z,131770.0
2023-05-02T13:45:53.460Z,131810.0
2023-05-02T13:50:53.416Z,131800.0
2023-05-02T13:55:53.421Z,131760.0
2023-05-02T14:00:53.434Z,131730.0
2023-05-02T14:05:53.422Z,131760.0
2023-05-02T14:10:53.426Z,131720.0
2023-05-02T14:15:53.471Z,131690.0
2023-05-02T14:20:53.429Z,131650.0
2023-05-02T14:25:53.429Z,131630.0
2023-05-02T14:30:53.436Z,131590.0
2023-05-02T14:35:53.448Z,131570.0
2023-05-02T14:40:53.446Z,131560.0
2023-05-02T14:45:53.457Z,131560.0
2023-05-02T14:50:53.448Z,131480.0
2023-05-02T14:55:53.458Z,131490.0
2023-05-02T15:00:53.454Z,131470.0
2023-05-02T15:05:53.478Z,131490.0
2023-05-02T15:10:53.470Z,131490.0
2023-05-02T15:15:53.455Z,131500.0
2023-05-02T15:20:53.482Z,131470.0
2023-05-02T15:25:53.461Z,131460.0
2023-05-02T15:30:53.472Z,131480.0
2023-05-02T15:35:53.469Z,131460.0
2023-05-02T15:40:53.487Z,131480.0
2023-05-02T15:45:53.496Z,131440.0
2023-05-02T15:50:53.480Z,131470.0
2023-05-02T15:55:53.482Z,131510.0
2023-05-02T16:00:53.472Z,131520.0
2023-05-02T16:05:53.482Z,131490.0
2023-05-02T16:10:53.484Z,131520.0
2023-05-02T16:15:53.517Z,131500.0
2023-05-02T16:20:53.482Z,131530.0
2023-05-02T16:25:53.482Z,131560.0
2023-05-02T16:30:53.571Z,131610.0
2023-05-02T16:35:53.489Z,131650.0
2023-05-02T16:40:53.510Z,131660.0
2023-05-02T16:45:53.491Z,131660.0
2023-05-02T16:50:53.494Z,131670.0
2023-05-02T16:55:53.497Z,131680.0
2023-05-02T17:00:53.512Z,131680.0
2023-05-02T17:05:53.500Z,131710.0
2023-05-02T17:10:53.497Z,131780.0
2023-05-02T17:15:53.509Z,131770.0
2023-05-02T17:20:53.509Z,131810.0
2023-05-02T17:25:53.496Z,131830.0
2023-05-02T17:30:53.552Z,131850.0
2023-05-02T17:35:53.506Z,131870.0
2023-05-02T17:40:53.517Z,131920.0
2023-05-02T17:45:53.561Z,131940.0
2023-05-02T17:50:53.506Z,131950.0
2023-05-02T17:55:53.520Z,131970.0
2023-05-02T18:00:53.519Z,132030.0
2023-05-02T18:05:53.531Z,132110.0
2023-05-02T18:10:53.521Z,132150.0
2023-05-02T18:15:53.564Z,132210.0
2023-05-02T18:20:53.536Z,132280.0
2023-05-02T18:25:53.525Z,132350.0
2023-05-02T18:30:53.526Z,132420.0
2023-05-02T18:35:53.523Z,132450.0
2023-05-02T18:40:53.534Z,132530.0
2023-05-02T18:45:53.562Z,132610.0
2023-05-02T18:50:53.527Z,132700.0
2023-05-02T18:55:53.532Z,132770.0
2023-05-02T19:00:53.530Z,132830.0
2023-05-02T19:05:53.519Z,132890.0
2023-05-02T19:10:53.528Z,132950.0
2023-05-02T19:15:53.544Z,133000.0
2023-05-02T19:20:53.525Z,133040.0
2023-05-02T19:25:53.528Z,133050.0
2023-05-02T19:30:53.531Z,133080.0
2023-05-02T19:35:54.239Z,133130.0
2023-05-02T19:40:53.532Z,133210.0
2023-05-02T19:45:53.560Z,133230.0
2023-05-02T19:50:53.531Z,133220.0
2023-05-02T19:55:53.561Z,133260.0
2023-05-02T20:00:53.585Z,133300.0
2023-05-02T20:05:53.551Z,133300.0
2023-05-02T20:10:53.553Z,133350.0
2023-05-02T20:15:53.615Z,133380.0
2023-05-02T20:20:53.536Z,133400.0
2023-05-02T20:25:53.538Z,133410.0
2023-05-02T20:30:53.582Z,133450.0
2023-05-02T20:35:53.551Z,133460.0
2023-05-02T20:40:53.541Z,133480.0
2023-05-02T20:45:53.578Z,133510.0
2023-05-02T20:50:53.547Z,133530.0
2023-05-02T20:55:53.539Z,133530.0
2023-05-02T21:00:53.554Z,133540.0
2023-05-02T21:05:53.575Z,133560.0
2023-05-02T21:10:53.570Z,133580.0
2023-05-02T21:15:53.591Z,133610.0
2023-05-02T21:20:53.556Z,133620.0
2023-05-02T21:25:53.558Z,133620.0
2023-05-02T21:30:53.559Z,133630.0
2023-05-02T21:35:53.556Z,133650.0
2023-05-02T21:40:53.556Z,133680.0
2023-05-02T21:45:53.564Z,133690.0
2023-05-02T21:50:53.563Z,133700.0
2023-05-02T21:55:53.575Z,133710.0
2023-05-02T22:00:53.698Z,133730.0
2023-05-02T22:05:53.573Z,133750.0
2023-05-02T22:10:53.670Z,133760.0
2023-05-02T22:15:53.670Z,133770.0
2023-05-02T22:20:53.572Z,133780.0
2023-05-02T22:25:53.675Z,133800.0
2023-05-02T22:30:53.576Z,133790.0
2023-05-02T22:35:53.581Z,133810.0
2023-05-02T22:40:53.573Z,133810.0
2023-05-02T22:45:53.735Z,133830.0
2023-05-02T22:50:53.683Z,133820.0
2023-05-02T22:55:53.606Z,133830.0
2023-05-02T23:00:53.688Z,133860.0
2023-05-02T23:05:53.679Z,133880.0
2023-05-02T23:10:53.682Z,133890.0
2023-05-02T23:15:53.719Z,133920.0
2023-05-02T23:20:53.691Z,133930.0
2023-05-02T23:25:53.703Z,133930.0
2023-05-02T23:30:53.697Z,133940.0
2023-05-02T23:35:53.724Z,133950.0
2023-05-02T23:40:53.694Z,133950.0
2023-05-02T23:45:53.682Z,133960.0
2023-05-02T23:50:53.693Z,133970.0
2023-05-02T23:55:53.698Z,133990.0
